createdAt,value
2022-08-26T00:01:29.173Z,5.10
2022-08-26T00:03:56.732Z,6.90
2022-08-26T00:06:23.539Z,7.03
2022-08-26T00:08:50.170Z,4.97
2022-08-26T00:11:26.379Z,6.65
2022-08-26T00:13:54.650Z,5.80
2022-08-26T00:16:21.699Z,5.90
2022-08-26T00:18:48.320Z,4.85
2022-08-26T00:21:16.253Z,5.20
2022-08-26T00:23:42.968Z,6.32
2022-08-26T00:26:09.683Z,6.78
2022-08-26T00:28:37.985Z,6.18
2022-08-26T00:31:07.134Z,5.57
2022-08-26T00:33:33.832Z,6.22
2022-08-26T00:36:01.679Z,6.07
2022-08-26T00:38:29.075Z,7.00
2022-08-26T00:40:56.803Z,6.20
2022-08-26T00:43:25.073Z,5.72
2022-08-26T00:45:56.889Z,7.10
2022-08-26T00:48:26.167Z,6.68
2022-08-26T00:51:01.919Z,7.38
2022-08-26T00:53:30.856Z,5.63
2022-08-26T00:56:23.190Z,6.68
2022-08-26T00:58:50.872Z,7.68
2022-08-26T01:01:18.179Z,5.88
2022-08-26T01:03:45.458Z,7.25
2022-08-26T01:06:13.130Z,6.88
2022-08-26T01:08:40.400Z,6.43
2022-08-26T01:11:08.114Z,7.75
2022-08-26T01:13:36.464Z,6.10
2022-08-26T01:16:04.547Z,7.60
2022-08-26T01:18:31.590Z,8.13
2022-08-26T01:21:14.332Z,7.47
2022-08-26T01:23:45.100Z,8.00
2022-08-26T01:26:31.354Z,6.65
2022-08-26T01:29:02.941Z,7.32
2022-08-26T01:31:35.059Z,6.25
2022-08-26T01:34:05.897Z,8.27
2022-08-26T01:36:32.785Z,6.15
2022-08-26T01:38:59.443Z,6.35
2022-08-26T01:41:27.161Z,6.47
2022-08-26T01:43:56.931Z,6.10
2022-08-26T01:46:26.402Z,7.40
2022-08-26T01:48:55.149Z,8.32
2022-08-26T01:51:23.503Z,8.07
2022-08-26T01:53:50.115Z,7.70
2022-08-26T01:56:16.693Z,6.50
2022-08-26T01:58:46.633Z,7.43
2022-08-26T02:01:13.627Z,8.48
2022-08-26T02:03:52.502Z,5.75
2022-08-26T02:06:19.756Z,10.25
2022-08-26T02:08:53.172Z,9.18
2022-08-26T02:11:19.960Z,7.70
2022-08-26T02:13:52.637Z,10.27
2022-08-26T02:16:22.932Z,8.48
2022-08-26T02:18:50.666Z,7.07
2022-08-26T02:21:19.956Z,6.22
2022-08-26T02:23:46.537Z,6.60
2022-08-26T02:26:19.483Z,7.88
2022-08-26T02:29:08.832Z,8.73
2022-08-26T02:31:35.643Z,7.53
2022-08-26T02:34:15.108Z,8.20
2022-08-26T02:36:41.859Z,7.80
2022-08-26T02:39:08.964Z,10.48
2022-08-26T02:41:35.740Z,9.02
2022-08-26T02:44:11.711Z,8.00
2022-08-26T02:46:39.212Z,8.40
2022-08-26T02:49:06.973Z,7.32
2022-08-26T02:51:33.723Z,6.25
2022-08-26T02:54:00.313Z,8.77
2022-08-26T02:56:28.122Z,7.28
2022-08-26T02:58:54.940Z,7.38
2022-08-26T03:01:24.132Z,9.07
2022-08-26T03:03:50.920Z,8.40
2022-08-26T03:06:18.197Z,11.38
2022-08-26T03:08:44.872Z,8.90
2022-08-26T03:11:11.679Z,8.05
2022-08-26T03:13:38.975Z,7.25
2022-08-26T03:16:06.454Z,6.90
2022-08-26T03:18:33.034Z,7.00
2022-08-26T03:21:05.725Z,9.82
2022-08-26T03:23:33.531Z,6.57
2022-08-26T03:26:01.457Z,8.68
2022-08-26T03:28:28.051Z,7.28
2022-08-26T03:30:55.004Z,9.13
2022-08-26T03:33:22.334Z,9.00
2022-08-26T03:35:50.717Z,9.40
2022-08-26T03:38:18.004Z,8.40
2022-08-26T03:40:44.642Z,7.72
2022-08-26T03:43:12.376Z,8.25
2022-08-26T03:45:39.502Z,7.65
2022-08-26T03:48:07.769Z,7.38
2022-08-26T03:50:35.931Z,7.78
2022-08-26T03:53:03.660Z,7.82
2022-08-26T03:55:32.455Z,7.28
2022-08-26T03:58:00.769Z,6.00
2022-08-26T04:00:27.414Z,10.13
2022-08-26T04:02:54.020Z,7.88
2022-08-26T04:05:22.764Z,7.82
2022-08-26T04:07:50.006Z,7.55
2022-08-26T04:10:20.047Z,7.68
2022-08-26T04:12:47.033Z,8.30
2022-08-26T04:15:16.420Z,6.95
2022-08-26T04:17:44.712Z,8.50
2022-08-26T04:20:13.971Z,8.73
2022-08-26T04:22:43.049Z,8.10
2022-08-26T04:25:09.920Z,8.38
2022-08-26T04:27:36.555Z,8.13
2022-08-26T04:30:04.630Z,8.70
2022-08-26T04:32:31.194Z,7.65
2022-08-26T04:34:57.819Z,8.95
2022-08-26T04:37:25.151Z,6.90
2022-08-26T04:39:54.605Z,7.90
2022-08-26T04:42:23.305Z,8.80
2022-08-26T04:44:52.784Z,7.45
2022-08-26T04:47:19.439Z,7.80
2022-08-26T04:49:46.018Z,8.98
2022-08-26T04:52:12.675Z,7.00
2022-08-26T04:54:39.328Z,8.73
2022-08-26T04:57:08.610Z,9.40
2022-08-26T04:59:39.071Z,8.43
2022-08-26T05:02:06.829Z,8.23
2022-08-26T05:04:33.803Z,6.82
2022-08-26T05:07:02.930Z,8.43
2022-08-26T05:09:29.704Z,6.68
2022-08-26T05:11:57.146Z,7.22
2022-08-26T05:14:23.947Z,6.28
2022-08-26T05:16:50.723Z,6.68
2022-08-26T05:19:19.187Z,6.28
2022-08-26T05:21:47.298Z,9.45
2022-08-26T05:24:14.289Z,7.60
2022-08-26T05:26:41.192Z,7.18
2022-08-26T05:29:08.069Z,7.90
2022-08-26T05:31:35.593Z,7.30
2022-08-26T05:34:04.610Z,7.60
2022-08-26T05:36:34.384Z,6.68
2022-08-26T05:39:02.670Z,7.82
2022-08-26T05:41:34.324Z,8.68
2022-08-26T05:44:06.060Z,7.38
2022-08-26T05:46:33.582Z,7.43
2022-08-26T05:49:01.081Z,7.35
2022-08-26T05:51:27.685Z,6.47
2022-08-26T05:53:57.111Z,6.30
2022-08-26T05:56:26.150Z,6.00
2022-08-26T05:58:53.719Z,6.13
2022-08-26T06:01:26.118Z,6.85
2022-08-26T06:03:55.903Z,5.55
2022-08-26T06:06:34.619Z,8.77
2022-08-26T06:09:05.061Z,6.80
2022-08-26T06:11:32.612Z,6.88
2022-08-26T06:14:03.756Z,6.22
2022-08-26T06:16:33.503Z,7.10
2022-08-26T06:19:02.770Z,6.22
2022-08-26T06:21:35.048Z,6.38
2022-08-26T06:24:27.255Z,5.67
2022-08-26T06:26:56.484Z,6.43
2022-08-26T06:29:25.859Z,5.30
2022-08-26T06:31:53.752Z,5.78
2022-08-26T06:34:20.376Z,6.50
2022-08-26T06:36:47.415Z,7.07
2022-08-26T06:39:16.446Z,8.00
2022-08-26T06:41:44.907Z,6.40
2022-08-26T06:44:13.003Z,7.30
2022-08-26T06:46:40.087Z,6.07
2022-08-26T06:49:07.007Z,5.82
2022-08-26T06:51:36.356Z,6.38
2022-08-26T06:54:04.731Z,6.05
2022-08-26T06:56:36.752Z,11.02
2022-08-26T06:59:04.141Z,9.43
2022-08-26T07:01:37.900Z,12.60
2022-08-26T07:04:10.487Z,8.18
2022-08-26T07:06:39.852Z,10.75
2022-08-26T07:09:09.854Z,9.85
2022-08-26T07:11:38.183Z,8.70
2022-08-26T07:14:05.944Z,8.38
2022-08-26T07:16:33.259Z,7.80
2022-08-26T07:18:59.852Z,8.23
2022-08-26T07:21:29.990Z,8.57
2022-08-26T07:24:01.209Z,9.57
2022-08-26T07:26:30.260Z,8.02
2022-08-26T07:28:58.041Z,10.02
2022-08-26T07:31:27.525Z,10.07
2022-08-26T07:33:54.251Z,8.13
2022-08-26T07:36:21.887Z,9.48
2022-08-26T07:38:48.602Z,7.40
2022-08-26T07:41:17.455Z,10.30
2022-08-26T07:43:44.054Z,8.63
2022-08-26T07:46:16.484Z,8.38
2022-08-26T07:48:46.003Z,8.63
2022-08-26T07:51:15.012Z,8.75
2022-08-26T07:53:47.961Z,8.18
2022-08-26T07:56:18.959Z,8.13
2022-08-26T07:58:48.970Z,12.32
2022-08-26T08:01:18.148Z,8.15
2022-08-26T08:03:45.408Z,7.05
2022-08-26T08:06:12.144Z,6.63
2022-08-26T08:08:41.411Z,6.70
2022-08-26T08:11:08.024Z,8.20
2022-08-26T08:13:37.437Z,8.32
2022-08-26T08:16:05.059Z,7.95
2022-08-26T08:18:31.871Z,7.07
2022-08-26T08:21:21.225Z,6.97
2022-08-26T08:23:47.141Z,7.75
2022-08-26T08:26:14.149Z,7.80
2022-08-26T08:28:40.899Z,5.32
2022-08-26T08:31:08.254Z,9.07
2022-08-26T08:33:35.301Z,7.97
2022-08-26T08:36:02.015Z,6.40
2022-08-26T08:38:28.771Z,7.63
2022-08-26T08:40:55.379Z,7.72
2022-08-26T08:43:37.514Z,6.32
2022-08-26T08:46:09.233Z,8.17
2022-08-26T08:48:39.294Z,6.18
2022-08-26T08:51:30.387Z,6.53
2022-08-26T08:53:57.032Z,7.13
2022-08-26T08:56:27.827Z,5.78
2022-08-26T08:59:34.399Z,8.88
2022-08-26T09:02:30.643Z,7.07
2022-08-26T09:05:15.723Z,6.45
2022-08-26T09:08:11.373Z,6.30
2022-08-26T09:10:45.322Z,5.88
2022-08-26T09:13:16.776Z,6.10
2022-08-26T09:16:08.341Z,7.50
2022-08-26T09:18:57.599Z,6.28
2022-08-26T09:21:25.472Z,5.47
2022-08-26T09:23:55.464Z,7.65
2022-08-26T09:26:29.281Z,7.57
2022-08-26T09:29:08.974Z,7.10
2022-08-26T09:31:37.048Z,7.03
2022-08-26T09:34:27.448Z,8.02
2022-08-26T09:36:58.685Z,5.13
2022-08-26T09:39:28.073Z,5.78
2022-08-26T09:42:16.831Z,8.68
2022-08-26T09:44:57.133Z,7.68
2022-08-26T09:47:34.620Z,5.30
2022-08-26T09:50:12.566Z,7.40
2022-08-26T09:52:40.663Z,7.47
2022-08-26T09:55:09.371Z,6.75
2022-08-26T09:57:45.704Z,7.80
2022-08-26T10:00:23.619Z,7.32
2022-08-26T10:02:52.740Z,5.30
2022-08-26T10:05:31.002Z,6.10
2022-08-26T10:07:58.617Z,5.50
2022-08-26T10:10:38.209Z,5.40
2022-08-26T10:13:16.716Z,7.97
2022-08-26T10:16:07.092Z,5.22
2022-08-26T10:18:40.802Z,6.15
2022-08-26T10:21:22.770Z,5.97
2022-08-26T10:23:52.186Z,7.30
2022-08-26T10:26:21.612Z,5.68
2022-08-26T10:28:53.048Z,4.70
2022-08-26T10:31:27.865Z,6.93
2022-08-26T10:33:58.788Z,4.55
2022-08-26T10:37:13.397Z,5.28
2022-08-26T10:39:57.200Z,5.85
2022-08-26T10:42:48.939Z,4.60
2022-08-26T10:45:22.236Z,5.05
2022-08-26T10:47:54.557Z,7.60
2022-08-26T10:50:30.706Z,6.73
2022-08-26T10:53:07.619Z,6.60
2022-08-26T10:55:41.136Z,6.53
2022-08-26T10:58:26.090Z,3.80
2022-08-26T11:01:22.640Z,5.57
2022-08-26T11:04:25.130Z,4.60
2022-08-26T11:07:29.166Z,3.58
2022-08-26T11:10:20.282Z,4.68
2022-08-26T11:12:52.591Z,5.70
2022-08-26T11:17:51.371Z,5.75
2022-08-26T11:20:31.070Z,5.88
2022-08-26T11:23:20.325Z,5.25
2022-08-26T11:25:57.490Z,7.07
2022-08-26T11:28:33.736Z,4.95
2022-08-26T11:31:00.362Z,4.45
2022-08-26T11:33:50.986Z,7.70
2022-08-26T11:36:49.090Z,4.30
2022-08-26T11:39:15.583Z,5.60
2022-08-26T11:41:52.698Z,4.85
2022-08-26T11:44:24.055Z,5.90
2022-08-26T11:46:59.620Z,5.32
2022-08-26T11:49:28.301Z,5.57
2022-08-26T11:52:20.743Z,8.15
2022-08-26T11:55:06.541Z,5.35
2022-08-26T11:57:34.742Z,5.50
2022-08-26T12:00:03.672Z,6.55
2022-08-26T12:02:30.245Z,5.47
2022-08-26T12:04:57.022Z,5.38
2022-08-26T12:07:27.049Z,4.03
2022-08-26T12:10:02.261Z,4.05
2022-08-26T12:12:34.938Z,5.22
2022-08-26T12:15:12.576Z,4.70
2022-08-26T12:17:40.732Z,4.20
2022-08-26T12:20:45.949Z,6.25
2022-08-26T12:23:40.144Z,4.10
2022-08-26T12:26:25.099Z,8.90
2022-08-26T12:29:19.699Z,18.33
2022-08-26T12:31:47.851Z,16.90
2022-08-26T12:34:18.253Z,16.17
2022-08-26T12:36:54.941Z,9.05
2022-08-26T12:39:36.259Z,10.32
2022-08-26T12:42:03.923Z,10.40
2022-08-26T12:44:53.250Z,12.85
2022-08-26T12:47:44.005Z,11.40
2022-08-26T12:50:30.396Z,11.77
2022-08-26T12:53:03.368Z,8.20
2022-08-26T12:55:32.903Z,8.88
2022-08-26T12:58:22.918Z,12.10
2022-08-26T13:00:53.838Z,8.40
2022-08-26T13:03:32.594Z,9.38
2022-08-26T13:06:22.274Z,10.23
2022-08-26T13:09:00.740Z,6.20
2022-08-26T13:11:33.428Z,6.40
2022-08-26T13:14:24.111Z,9.13
2022-08-26T13:16:51.450Z,7.75
2022-08-26T13:19:23.440Z,7.35
2022-08-26T13:21:55.384Z,6.22
2022-08-26T13:24:28.003Z,3.63
2022-08-26T13:26:54.623Z,5.78
2022-08-26T13:29:21.271Z,4.85
2022-08-26T13:31:48.052Z,4.90
2022-08-26T13:34:20.753Z,6.28
2022-08-26T13:36:49.565Z,6.25
2022-08-26T13:39:17.408Z,4.82
2022-08-26T13:41:44.100Z,4.28
2022-08-26T13:44:11.033Z,5.82
2022-08-26T13:46:38.207Z,6.70
2022-08-26T13:49:05.012Z,5.38
2022-08-26T13:51:32.047Z,4.80
2022-08-26T13:53:59.019Z,5.57
2022-08-26T13:56:27.741Z,4.82
2022-08-26T13:58:54.460Z,7.32
2022-08-26T14:01:21.076Z,5.85
2022-08-26T14:03:47.888Z,5.30
2022-08-26T14:06:15.019Z,5.20
2022-08-26T14:08:42.085Z,3.95
2022-08-26T14:11:09.109Z,5.43
2022-08-26T14:13:36.219Z,3.40
2022-08-26T14:16:07.080Z,3.88
2022-08-26T14:18:41.085Z,3.90
2022-08-26T14:21:09.258Z,3.85
2022-08-26T14:23:35.867Z,4.38
2022-08-26T14:26:04.050Z,5.80
2022-08-26T14:28:30.705Z,4.90
2022-08-26T14:30:58.291Z,4.35
2022-08-26T14:33:27.973Z,4.03
2022-08-26T14:36:14.682Z,4.32
2022-08-26T14:38:41.510Z,4.57
2022-08-26T14:41:08.119Z,4.13
2022-08-26T14:43:34.740Z,4.32
2022-08-26T14:46:01.368Z,3.58
2022-08-26T14:48:27.987Z,6.90
2022-08-26T14:50:54.596Z,4.07
2022-08-26T14:53:39.598Z,2.55
2022-08-26T14:56:06.211Z,2.88
2022-08-26T14:58:35.006Z,4.65
2022-08-26T15:01:04.427Z,5.00
2022-08-26T15:03:31.196Z,3.17
2022-08-26T15:05:58.033Z,3.80
2022-08-26T15:08:25.451Z,2.58
2022-08-26T15:10:52.085Z,4.65
2022-08-26T15:13:19.145Z,5.43
2022-08-26T15:15:46.570Z,3.17
2022-08-26T15:18:13.276Z,3.95
2022-08-26T15:20:39.961Z,3.40
2022-08-26T15:23:07.446Z,4.18
2022-08-26T15:25:34.240Z,4.97
2022-08-26T15:28:00.929Z,3.45
2022-08-26T15:30:27.628Z,5.22
2022-08-26T15:32:54.221Z,3.38
2022-08-26T15:35:20.829Z,2.88
2022-08-26T15:37:47.482Z,2.75
2022-08-26T15:40:14.248Z,3.30
2022-08-26T15:42:40.956Z,4.63
2022-08-26T15:45:07.904Z,3.83
2022-08-26T15:47:55.409Z,4.03
2022-08-26T15:50:21.422Z,3.10
2022-08-26T15:52:48.103Z,3.80
2022-08-26T15:55:14.764Z,4.95
2022-08-26T15:57:41.383Z,3.42
2022-08-26T16:00:10.066Z,3.35
2022-08-26T16:02:36.684Z,3.45
2022-08-26T16:05:03.312Z,3.22
2022-08-26T16:07:31.780Z,3.35
2022-08-26T16:09:58.517Z,4.78
2022-08-26T16:12:25.146Z,4.38
2022-08-26T16:14:52.712Z,4.40
2022-08-26T16:17:20.015Z,3.15
2022-08-26T16:19:46.783Z,3.50
2022-08-26T16:22:13.381Z,2.47
2022-08-26T16:24:39.990Z,3.88
2022-08-26T16:27:06.728Z,2.30
2022-08-26T16:29:33.362Z,4.90
2022-08-26T16:32:00.035Z,3.90
2022-08-26T16:34:26.856Z,3.25
2022-08-26T16:36:53.532Z,3.05
2022-08-26T16:39:20.159Z,2.10
2022-08-26T16:41:46.797Z,3.33
2022-08-26T16:44:13.448Z,2.45
2022-08-26T16:46:41.256Z,4.97
2022-08-26T16:49:08.069Z,4.82
2022-08-26T16:51:38.316Z,4.20
2022-08-26T16:54:07.053Z,3.70
2022-08-26T16:56:34.521Z,3.70
2022-08-26T16:59:03.214Z,3.88
2022-08-26T17:01:30.175Z,4.88
2022-08-26T17:03:57.176Z,5.80
2022-08-26T17:06:23.841Z,3.00
2022-08-26T17:08:50.455Z,2.97
2022-08-26T17:11:17.235Z,3.10
2022-08-26T17:13:43.912Z,2.33
2022-08-26T17:16:14.180Z,3.15
2022-08-26T17:18:41.344Z,3.40
2022-08-26T17:21:11.271Z,2.13
2022-08-26T17:23:38.815Z,5.28
2022-08-26T17:26:05.767Z,5.82
2022-08-26T17:28:32.731Z,3.65
2022-08-26T17:30:59.782Z,3.15
2022-08-26T17:33:26.624Z,3.03
2022-08-26T17:35:53.807Z,2.05
2022-08-26T17:38:21.233Z,4.38
2022-08-26T17:40:47.861Z,2.60
2022-08-26T17:43:14.492Z,4.57
2022-08-26T17:45:41.487Z,2.03
2022-08-26T17:48:08.456Z,2.25
2022-08-26T17:50:35.677Z,2.63
2022-08-26T17:53:02.254Z,3.78
2022-08-26T17:55:29.141Z,3.13
2022-08-26T17:57:55.707Z,3.17
2022-08-26T18:00:26.574Z,2.05
2022-08-26T18:02:56.498Z,3.15
2022-08-26T18:05:23.298Z,3.85
2022-08-26T18:07:51.465Z,3.85
2022-08-26T18:10:19.706Z,3.05
2022-08-26T18:12:46.779Z,2.38
2022-08-26T18:15:15.204Z,2.05
2022-08-26T18:17:41.939Z,2.05
2022-08-26T18:20:15.641Z,3.00
2022-08-26T18:22:42.391Z,2.03
2022-08-26T18:25:09.629Z,2.03
2022-08-26T18:27:37.422Z,2.75
2022-08-26T18:30:06.000Z,3.13
2022-08-26T18:32:32.581Z,3.03
2022-08-26T18:34:59.582Z,2.80
2022-08-26T18:37:29.418Z,3.38
2022-08-26T18:39:59.440Z,2.53
2022-08-26T18:42:26.560Z,3.70
2022-08-26T18:44:53.483Z,3.65
2022-08-26T18:47:20.143Z,3.40
2022-08-26T18:49:47.308Z,2.85
2022-08-26T18:52:13.969Z,3.20
2022-08-26T18:54:40.951Z,2.63
2022-08-26T18:57:07.517Z,2.08
2022-08-26T18:59:34.093Z,1.85
2022-08-26T19:02:00.798Z,3.92
2022-08-26T19:04:27.595Z,4.28
2022-08-26T19:06:54.277Z,2.17
2022-08-26T19:09:21.056Z,2.28
2022-08-26T19:11:49.632Z,2.28
2022-08-26T19:14:17.008Z,2.17
2022-08-26T19:16:47.868Z,1.88
2022-08-26T19:19:15.241Z,2.33
2022-08-26T19:21:41.899Z,2.00
2022-08-26T19:24:15.390Z,3.47
2022-08-26T19:26:43.958Z,3.10
2022-08-26T19:29:11.453Z,2.45
2022-08-26T19:31:38.044Z,2.53
2022-08-26T19:34:05.368Z,2.92
2022-08-26T19:36:32.792Z,3.03
2022-08-26T19:39:00.253Z,4.40
2022-08-26T19:41:36.925Z,1.70
2022-08-26T19:44:07.610Z,3.35
2022-08-26T19:46:34.569Z,1.80
2022-08-26T19:49:01.181Z,2.47
2022-08-26T19:51:29.747Z,2.30
2022-08-26T19:53:57.647Z,2.40
2022-08-26T19:56:24.540Z,2.40
2022-08-26T19:58:51.352Z,2.97
2022-08-26T20:01:18.756Z,2.05
2022-08-26T20:03:46.171Z,3.00
2022-08-26T20:06:14.568Z,1.73
2022-08-26T20:08:41.801Z,2.47
2022-08-26T20:11:12.203Z,2.20
2022-08-26T20:13:39.786Z,3.05
2022-08-26T20:16:06.895Z,3.75
2022-08-26T20:18:53.056Z,2.17
2022-08-26T20:21:29.270Z,3.50
2022-08-26T20:24:00.495Z,1.65
2022-08-26T20:26:28.649Z,2.92
2022-08-26T20:28:55.663Z,3.15
2022-08-26T20:31:22.354Z,4.18
2022-08-26T20:33:50.576Z,3.03
2022-08-26T20:36:20.251Z,1.55
2022-08-26T20:38:47.639Z,3.67
2022-08-26T20:41:14.840Z,1.60
2022-08-26T20:43:42.853Z,2.67
2022-08-26T20:46:18.810Z,2.72
2022-08-26T20:48:46.707Z,2.25
2022-08-26T20:51:13.441Z,2.75
2022-08-26T20:53:40.055Z,2.80
2022-08-26T20:56:09.032Z,2.70
2022-08-26T20:58:36.180Z,3.80
2022-08-26T21:01:07.305Z,3.40
2022-08-26T21:03:35.302Z,3.15
2022-08-26T21:06:01.919Z,2.10
2022-08-26T21:08:28.519Z,2.03
2022-08-26T21:10:55.137Z,3.53
2022-08-26T21:13:22.845Z,2.42
2022-08-26T21:15:49.443Z,3.97
2022-08-26T21:18:16.141Z,3.15
2022-08-26T21:20:42.822Z,3.90
2022-08-26T21:23:09.457Z,2.45
2022-08-26T21:25:36.057Z,4.75
2022-08-26T21:28:02.832Z,2.22
2022-08-26T21:30:29.531Z,4.78
2022-08-26T21:32:56.162Z,3.88
2022-08-26T21:35:23.012Z,2.15
2022-08-26T21:37:50.223Z,4.57
2022-08-26T21:40:17.074Z,2.13
2022-08-26T21:42:43.810Z,2.80
2022-08-26T21:45:10.814Z,1.60
2022-08-26T21:47:37.471Z,3.00
2022-08-26T21:50:04.573Z,3.17
2022-08-26T21:52:31.306Z,2.22
2022-08-26T21:54:59.736Z,2.42
2022-08-26T21:57:27.947Z,3.65
2022-08-26T21:59:54.867Z,5.53
2022-08-26T22:02:22.593Z,2.88
2022-08-26T22:04:49.666Z,2.83
2022-08-26T22:07:18.309Z,3.20
2022-08-26T22:09:44.915Z,3.72
2022-08-26T22:12:12.409Z,2.45
2022-08-26T22:14:39.793Z,2.22
2022-08-26T22:17:06.742Z,2.70
2022-08-26T22:19:34.080Z,2.92
2022-08-26T22:22:13.063Z,3.88
2022-08-26T22:24:40.032Z,2.35
2022-08-26T22:27:06.674Z,2.55
2022-08-26T22:29:33.407Z,1.75
2022-08-26T22:32:01.038Z,2.33
2022-08-26T22:34:28.196Z,2.05
2022-08-26T22:36:54.894Z,2.83
2022-08-26T22:39:25.280Z,3.33
2022-08-26T22:41:52.872Z,2.60
2022-08-26T22:44:22.144Z,4.55
2022-08-26T22:46:49.760Z,3.80
2022-08-26T22:49:16.627Z,2.08
2022-08-26T22:51:44.652Z,2.35
2022-08-26T22:54:11.636Z,2.70
2022-08-26T22:56:38.493Z,3.30
2022-08-26T22:59:07.850Z,2.15
2022-08-26T23:01:39.737Z,3.35
2022-08-26T23:04:07.183Z,2.70
2022-08-26T23:06:38.118Z,2.30
2022-08-26T23:09:06.139Z,2.22
2022-08-26T23:11:33.039Z,1.92
2022-08-26T23:14:02.255Z,3.13
2022-08-26T23:16:39.484Z,2.58
2022-08-26T23:19:08.182Z,3.65
2022-08-26T23:21:34.965Z,2.72
2022-08-26T23:24:02.375Z,4.25
2022-08-26T23:26:28.989Z,2.97
2022-08-26T23:28:55.760Z,2.40
2022-08-26T23:31:22.459Z,3.13
2022-08-26T23:34:07.633Z,3.10
2022-08-26T23:36:34.963Z,4.10
2022-08-26T23:39:02.104Z,2.33
2022-08-26T23:41:28.705Z,3.05
2022-08-26T23:43:55.349Z,3.08
2022-08-26T23:46:22.196Z,3.78
2022-08-26T23:48:48.819Z,3.47
2022-08-26T23:51:33.844Z,3.20
2022-08-26T23:54:00.489Z,2.75
2022-08-26T23:56:27.128Z,2.03
2022-08-26T23:58:54.423Z,3.47
